Time;durP1;ratioP1;P1;durP2;ratioP2;P2;SDS_P1;SDS_P2;PMS_P1;PMS_P2;Temp;Humidity;BMP_temperature;BMP_pressure;BME280_temperature;BME280_humidity;BME280_pressure;Samples;Min_cycle;Max_cycle;Signal;HPM_P1;HPM_P2
2022/12/18 00:00:09;;;;;;;1.33;1.07;;;;;;;12.02;100.00;95936.94;5113659;28;20520;-55
2022/12/18 00:02:38;;;;;;;1.20;1.17;;;;;;;12.22;100.00;95951.34;5113535;28;20488;-56
2022/12/18 00:05:08;;;;;;;1.10;0.83;;;;;;;12.15;100.00;95938.28;5113623;28;20431;-56
2022/12/18 00:07:36;;;;;;;0.60;0.50;;;;;;;11.98;100.00;95945.69;5113517;28;20418;-56
2022/12/18 00:10:06;;;;;;;2.77;0.80;;;;;;;12.05;100.00;95959.50;5113643;28;20430;-57
2022/12/18 00:12:34;;;;;;;2.50;1.00;;;;;;;11.89;100.00;95952.59;5113435;28;20413;-56
2022/12/18 00:15:05;;;;;;;0.83;0.83;;;;;;;12.27;100.00;95964.63;5113320;28;20442;-56
2022/12/18 00:17:33;;;;;;;0.90;0.90;;;;;;;12.20;100.00;95943.59;5113304;28;20970;-56
2022/12/18 00:20:01;;;;;;;0.97;0.60;;;;;;;12.39;100.00;95965.16;5113641;28;20433;-56
2022/12/18 00:22:30;;;;;;;1.40;0.63;;;;;;;12.10;100.00;95962.19;5113214;28;20979;-56
2022/12/18 00:24:58;;;;;;;1.40;1.30;;;;;;;11.56;100.00;95945.00;5112760;28;20499;-56
2022/12/18 00:27:26;;;;;;;4.47;1.03;;;;;;;11.24;100.00;95884.88;5112809;28;20428;-57
2022/12/18 00:29:55;;;;;;;6.13;1.27;;;;;;;11.91;100.00;95974.38;5113117;28;20452;-57
2022/12/18 00:32:24;;;;;;;0.80;0.80;;;;;;;11.83;100.00;95980.97;5112796;28;21070;-57
2022/12/18 00:34:52;;;;;;;1.43;1.43;;;;;;;11.78;100.00;96001.41;5113045;28;20503;-57
2022/12/18 00:37:21;;;;;;;1.23;1.00;;;;;;;11.93;100.00;95998.81;5112889;28;20931;-57
2022/12/18 00:39:50;;;;;;;1.50;1.40;;;;;;;11.82;100.00;96002.47;5112630;28;20478;-57
2022/12/18 00:45:03;;;;;;;2.30;1.67;;;;;;;12.23;100.00;95982.13;5097957;28;20468;-56
2022/12/18 00:47:41;;;;;;;1.43;1.33;;;;;;;12.30;100.00;95978.16;5112785;28;20439;-56
2022/12/18 00:50:10;;;;;;;2.17;2.07;;;;;;;12.30;100.00;95982.69;5112348;28;20482;-56
2022/12/18 00:52:40;;;;;;;0.60;0.57;;;;;;;12.33;100.00;95990.94;5112624;28;20437;-56
2022/12/18 00:55:09;;;;;;;0.93;0.93;;;;;;;12.07;100.00;95973.34;5112911;28;20434;-56
2022/12/18 00:57:38;;;;;;;0.80;0.80;;;;;;;12.32;100.00;95988.56;5112643;28;20426;-56
2022/12/18 01:00:09;;;;;;;0.40;0.40;;;;;;;12.40;100.00;95982.69;5112197;28;20516;-57
2022/12/18 01:02:38;;;;;;;1.03;0.90;;;;;;;12.25;100.00;95980.81;5112096;28;20462;-57
2022/12/18 01:05:09;;;;;;;0.93;0.90;;;;;;;12.12;100.00;95978.66;5112616;28;20425;-56
2022/12/18 01:07:37;;;;;;;16.53;1.47;;;;;;;12.28;100.00;95979.50;5112612;28;20511;-56
2022/12/18 01:10:07;;;;;;;0.63;0.63;;;;;;;12.34;100.00;95971.28;5112429;28;20419;-56
2022/12/18 01:12:35;;;;;;;0.50;0.40;;;;;;;12.33;100.00;95963.56;5112233;28;20426;-56
2022/12/18 01:15:05;;;;;;;0.60;0.60;;;;;;;12.37;100.00;95968.06;5112245;28;20837;-56
2022/12/18 01:17:34;;;;;;;0.73;0.73;;;;;;;11.86;100.00;95975.16;5112491;28;20423;-56
2022/12/18 01:20:03;;;;;;;5.63;3.20;;;;;;;11.52;100.00;95983.72;5112172;28;20920;-56
2022/12/18 01:22:33;;;;;;;1.10;1.10;;;;;;;11.60;100.00;95977.94;5112250;28;20457;-55
2022/12/18 01:25:01;;;;;;;1.03;0.50;;;;;;;11.93;100.00;95988.19;5112406;28;20427;-55
2022/12/18 01:27:30;;;;;;;1.40;1.33;;;;;;;11.61;100.00;95924.59;5111808;28;20434;-55
2022/12/18 01:29:58;;;;;;;1.20;1.20;;;;;;;11.77;100.00;95983.88;5112115;28;20433;-56
2022/12/18 01:32:27;;;;;;;0.50;0.50;;;;;;;12.00;100.00;95981.56;5111899;28;20523;-57
2022/12/18 01:34:55;;;;;;;0.80;0.80;;;;;;;12.07;100.00;95957.38;5112059;28;20426;-57
2022/12/18 01:37:24;;;;;;;0.60;0.60;;;;;;;12.05;100.00;95973.59;5112133;28;20430;-55
2022/12/18 01:39:55;;;;;;;0.50;0.40;;;;;;;12.01;100.00;95969.88;5112232;28;20422;-55
2022/12/18 01:42:25;;;;;;;0.80;0.60;;;;;;;11.74;100.00;95897.53;5111900;28;20468;-55
2022/12/18 01:45:02;;;;;;;0.97;0.60;;;;;;;12.30;100.00;95970.19;5111688;28;20464;-56
2022/12/18 01:47:35;;;;;;;0.70;0.70;;;;;;;12.28;100.00;95950.25;5111719;28;20517;-55
2022/12/18 01:50:09;;;;;;;0.50;0.50;;;;;;;12.12;100.00;95919.44;5111580;28;20561;-55
2022/12/18 01:52:38;;;;;;;0.60;0.50;;;;;;;12.38;100.00;95967.03;5111795;28;20430;-56
2022/12/18 01:55:10;;;;;;;0.83;0.70;;;;;;;12.41;100.00;95971.00;5111655;28;20448;-56
2022/12/18 01:57:40;;;;;;;0.40;0.30;;;;;;;12.30;100.00;95967.53;5115629;28;20504;-55
2022/12/18 02:00:11;;;;;;;0.70;0.70;;;;;;;12.18;100.00;95974.16;5115985;28;20429;-55
2022/12/18 02:02:41;;;;;;;0.53;0.50;;;;;;;11.91;100.00;95985.00;5114971;28;20813;-55
2022/12/18 02:05:11;;;;;;;0.67;0.60;;;;;;;11.23;100.00;95989.41;5115463;28;20432;-55
2022/12/18 02:07:45;;;;;;;0.50;0.47;;;;;;;11.13;100.00;96005.25;5115670;28;20418;-55
2022/12/18 02:10:24;;;;;;;1.67;1.63;;;;;;;10.15;100.00;95807.09;5115265;28;20519;-55
2022/12/18 02:13:00;;;;;;;0.60;0.40;;;;;;;11.30;100.00;95989.19;5115795;28;20437;-55
2022/12/18 02:15:36;;;;;;;0.40;0.30;;;;;;;11.23;100.00;95943.53;5115802;28;20452;-55
2022/12/18 02:18:09;;;;;;;0.77;0.77;;;;;;;11.30;100.00;95986.53;5115690;28;20426;-55
2022/12/18 02:20:44;;;;;;;0.43;0.43;;;;;;;11.24;100.00;95956.53;5115319;28;20956;-56
2022/12/18 02:23:25;;;;;;;0.53;0.40;;;;;;;11.74;100.00;95989.72;5115417;28;20471;-56
2022/12/18 02:26:11;;;;;;;1.60;1.50;;;;;;;11.53;100.00;95993.31;5115221;28;20434;-55
2022/12/18 02:28:44;;;;;;;0.40;0.37;;;;;;;11.68;100.00;95990.72;5114440;28;20448;-56
2022/12/18 02:31:17;;;;;;;1.00;0.90;;;;;;;11.66;100.00;96004.25;5115323;28;20435;-55
2022/12/18 02:33:47;;;;;;;0.40;0.30;;;;;;;11.91;100.00;96012.38;5115055;28;20491;-56
2022/12/18 02:36:19;;;;;;;0.80;0.60;;;;;;;11.78;100.00;95972.19;5114955;28;20428;-55
2022/12/18 02:38:48;;;;;;;0.40;0.30;;;;;;;11.59;100.00;95952.44;5114957;28;20926;-56
2022/12/18 02:41:19;;;;;;;1.03;1.00;;;;;;;11.77;100.00;96005.91;5114133;28;20441;-56
2022/12/18 02:43:50;;;;;;;1.17;1.17;;;;;;;11.77;100.00;96013.88;5115000;28;20461;-55
2022/12/18 02:46:38;;;;;;;0.50;0.50;;;;;;;11.32;100.00;95942.78;5115096;28;20503;-55
2022/12/18 02:49:18;;;;;;;0.60;0.60;;;;;;;11.83;100.00;96004.09;5114575;28;21060;-55
2022/12/18 02:51:53;;;;;;;2.07;1.33;;;;;;;11.47;100.00;95937.53;5114498;28;20438;-55
2022/12/18 02:54:44;;;;;;;1.70;1.60;;;;;;;11.15;100.00;95987.25;5114870;28;20515;-55
2022/12/18 02:57:22;;;;;;;0.87;0.87;;;;;;;10.49;100.00;95906.47;5114552;28;20895;-56
2022/12/18 02:59:57;;;;;;;7.10;1.23;;;;;;;11.43;100.00;96026.69;5114681;28;20428;-56
2022/12/18 03:02:31;;;;;;;4.37;0.43;;;;;;;11.14;100.00;96020.13;5114850;28;20792;-56
2022/12/18 03:05:05;;;;;;;1.17;1.17;;;;;;;11.26;100.00;96041.97;5113910;28;20455;-56
2022/12/18 03:07:39;;;;;;;21.03;0.60;;;;;;;11.35;100.00;96031.69;5111689;28;20897;-56
2022/12/18 03:10:10;;;;;;;1.57;1.57;;;;;;;11.29;100.00;96038.81;5113436;28;20547;-56
2022/12/18 03:12:44;;;;;;;0.67;0.60;;;;;;;10.97;100.00;95985.00;5114543;28;20415;-56
2022/12/18 03:15:18;;;;;;;0.50;0.50;;;;;;;11.19;100.00;95991.00;5114680;28;20448;-56
2022/12/18 03:17:51;;;;;;;1.43;1.23;;;;;;;11.48;100.00;96024.06;5114395;28;20437;-56
2022/12/18 03:20:22;;;;;;;0.40;0.30;;;;;;;11.49;100.00;96025.66;5114273;28;20428;-56
2022/12/18 03:22:58;;;;;;;1.13;1.13;;;;;;;11.12;100.00;96030.22;5114212;28;20556;-56
2022/12/18 03:25:28;;;;;;;0.50;0.50;;;;;;;10.96;100.00;96031.16;5114398;28;20428;-56
2022/12/18 03:28:02;;;;;;;0.40;0.40;;;;;;;10.80;100.00;96034.75;5114003;28;20930;-56
2022/12/18 03:30:32;;;;;;;0.50;0.50;;;;;;;10.78;100.00;96052.72;5113338;28;20431;-56
2022/12/18 03:33:06;;;;;;;2.87;1.90;;;;;;;10.51;100.00;96038.72;5114009;28;20439;-56
2022/12/18 03:35:38;;;;;;;0.60;0.40;;;;;;;10.54;100.00;96048.81;5114083;28;20520;-56
2022/12/18 03:38:07;;;;;;;0.80;0.67;;;;;;;10.39;100.00;96049.47;5114006;28;20522;-56
2022/12/18 03:40:44;;;;;;;1.00;0.90;;;;;;;10.08;100.00;96002.47;5114050;28;21067;-57
2022/12/18 03:43:21;;;;;;;0.50;0.40;;;;;;;10.29;100.00;96040.63;5113743;28;20478;-57
2022/12/18 03:45:55;;;;;;;0.40;0.30;;;;;;;10.25;100.00;96045.59;5113733;28;20428;-57
2022/12/18 03:48:30;;;;;;;0.50;0.40;;;;;;;10.20;100.00;96054.31;5113786;28;20488;-57
2022/12/18 03:51:03;;;;;;;1.90;1.80;;;;;;;10.29;100.00;96067.91;5113999;28;20419;-56
2022/12/18 03:53:41;;;;;;;0.67;0.63;;;;;;;10.28;100.00;96070.78;5113627;28;20513;-56
2022/12/18 03:56:12;;;;;;;1.50;1.27;;;;;;;10.23;100.00;96073.38;5113177;28;20447;-56
2022/12/18 03:58:44;;;;;;;1.23;0.90;;;;;;;10.27;100.00;96070.00;5113670;28;20438;-56
2022/12/18 04:01:16;;;;;;;0.40;0.33;;;;;;;10.23;100.00;96076.03;5113845;28;20435;-56
2022/12/18 04:03:47;;;;;;;1.90;1.10;;;;;;;10.20;100.00;96074.69;5113510;28;20472;-56
2022/12/18 04:06:17;;;;;;;0.40;0.33;;;;;;;10.42;100.00;96074.69;5113712;28;20428;-56
2022/12/18 04:08:46;;;;;;;0.90;0.50;;;;;;;10.45;100.00;96080.25;5113431;28;20440;-56
2022/12/18 04:11:15;;;;;;;1.53;1.43;;;;;;;10.40;100.00;96074.13;5113443;28;20413;-56
2022/12/18 04:13:45;;;;;;;0.50;0.50;;;;;;;10.36;100.00;96073.00;5113299;28;20435;-56
2022/12/18 04:16:13;;;;;;;0.97;0.93;;;;;;;10.27;100.00;96072.63;5112326;28;20826;-56
2022/12/18 04:18:42;;;;;;;0.40;0.30;;;;;;;10.25;100.00;96073.94;5112982;28;20941;-56
2022/12/18 04:21:11;;;;;;;1.50;1.40;;;;;;;10.19;100.00;96067.81;5113298;28;20512;-56
2022/12/18 04:23:39;;;;;;;0.50;0.50;;;;;;;10.00;100.00;96054.03;5113495;28;20469;-56
2022/12/18 04:26:08;;;;;;;0.80;0.80;;;;;;;9.26;100.00;95920.53;5113060;28;20999;-56
2022/12/18 04:28:37;;;;;;;2.60;0.40;;;;;;;10.45;100.00;96079.47;5112898;28;20414;-56
2022/12/18 04:31:06;;;;;;;0.77;0.77;;;;;;;10.29;100.00;96077.72;5113153;28;20878;-56
2022/12/18 04:33:35;;;;;;;0.40;0.40;;;;;;;10.06;100.00;96084.03;5113160;28;20897;-56
2022/12/18 04:36:04;;;;;;;0.90;0.90;;;;;;;9.99;100.00;96086.84;5112760;28;20809;-56
2022/12/18 04:38:32;;;;;;;1.00;0.63;;;;;;;10.04;100.00;96080.84;5112827;28;20425;-56
2022/12/18 04:41:01;;;;;;;0.40;0.40;;;;;;;10.00;100.00;96088.47;5112702;28;20518;-56
2022/12/18 04:43:29;;;;;;;7.77;0.60;;;;;;;10.00;100.00;96082.38;5112338;28;21021;-56
2022/12/18 04:46:03;;;;;;;0.80;0.80;;;;;;;10.08;100.00;96069.50;5111823;28;20514;-56
2022/12/18 04:48:33;;;;;;;1.90;0.63;;;;;;;10.11;100.00;96086.75;5112132;28;20508;-56
2022/12/18 04:51:03;;;;;;;2.40;1.27;;;;;;;9.86;100.00;96076.66;5112450;28;20439;-56
2022/12/18 04:53:32;;;;;;;3.03;1.97;;;;;;;9.62;100.00;96040.84;5112841;28;20415;-56
2022/12/18 04:56:06;;;;;;;2.00;1.80;;;;;;;9.82;100.00;96083.47;5112790;28;20411;-56
2022/12/18 04:58:34;;;;;;;0.60;0.60;;;;;;;9.92;100.00;96099.47;5112825;28;20452;-56
2022/12/18 05:01:04;;;;;;;0.50;0.47;;;;;;;9.88;100.00;96108.97;5112774;28;20420;-56
2022/12/18 05:03:34;;;;;;;1.07;1.07;;;;;;;9.81;100.00;96118.16;5112282;28;20475;-56
2022/12/18 05:06:03;;;;;;;0.80;0.50;;;;;;;9.63;100.00;96100.69;5112655;28;20438;-56
2022/12/18 05:08:32;;;;;;;1.03;1.03;;;;;;;9.72;100.00;96109.81;5112052;28;20430;-56
2022/12/18 05:11:01;;;;;;;1.50;1.40;;;;;;;9.07;100.00;96029.50;5112246;28;20432;-56
2022/12/18 05:13:29;;;;;;;0.90;0.90;;;;;;;8.76;100.00;95986.75;5112559;28;20908;-56
2022/12/18 05:15:58;;;;;;;0.60;0.50;;;;;;;9.72;100.00;96119.59;5111958;28;20925;-56
2022/12/18 05:18:27;;;;;;;0.97;0.70;;;;;;;9.79;100.00;96134.25;5111994;28;20431;-56
2022/12/18 05:20:57;;;;;;;0.80;0.80;;;;;;;9.68;100.00;96131.72;5112391;28;20427;-56
2022/12/18 05:23:26;;;;;;;0.60;0.60;;;;;;;9.75;100.00;96133.16;5112365;28;20446;-56
2022/12/18 05:25:55;;;;;;;0.60;0.60;;;;;;;9.79;100.00;96138.78;5112152;28;20435;-56
2022/12/18 05:28:25;;;;;;;1.77;1.67;;;;;;;9.76;100.00;96140.06;5112000;28;20427;-56
2022/12/18 05:30:55;;;;;;;3.63;1.23;;;;;;;10.12;100.00;96139.50;5113146;28;20756;-56
2022/12/18 05:33:26;;;;;;;0.40;0.30;;;;;;;10.13;100.00;96140.31;5116619;28;20433;-56
2022/12/18 05:35:57;;;;;;;3.70;1.10;;;;;;;10.12;100.00;96147.44;5116251;28;20443;-56
2022/12/18 05:38:27;;;;;;;4.93;1.20;;;;;;;10.37;100.00;96133.72;5116063;28;20834;-56
2022/12/18 05:40:56;;;;;;;1.00;1.00;;;;;;;10.30;100.00;96145.53;5116104;28;20913;-56
2022/12/18 05:43:24;;;;;;;0.50;0.40;;;;;;;10.49;100.00;96147.63;5115652;28;20527;-56
2022/12/18 05:45:53;;;;;;;0.43;0.40;;;;;;;10.39;100.00;96152.81;5115619;28;20475;-56
2022/12/18 05:48:22;;;;;;;0.70;0.57;;;;;;;10.31;100.00;96163.84;5115229;28;20479;-55
2022/12/18 05:50:51;;;;;;;0.60;0.40;;;;;;;10.52;100.00;96156.94;5115576;28;20435;-56
2022/12/18 05:53:21;;;;;;;1.30;0.50;;;;;;;10.71;100.00;96152.91;5116034;28;20747;-56
2022/12/18 05:55:49;;;;;;;1.10;1.00;;;;;;;9.79;100.00;95993.94;5115691;28;20457;-56
2022/12/18 05:58:18;;;;;;;0.40;0.40;;;;;;;10.77;100.00;96159.88;5116070;28;20451;-56
2022/12/18 06:00:55;;;;;;;2.40;1.67;;;;;;;10.75;100.00;96162.75;5115813;28;20494;-56
2022/12/18 06:03:24;;;;;;;1.03;1.03;;;;;;;10.84;100.00;96161.28;5115517;28;20439;-56
2022/12/18 06:06:00;;;;;;;0.47;0.30;;;;;;;10.70;100.00;96143.38;5115680;28;20599;-55
2022/12/18 06:08:30;;;;;;;0.40;0.30;;;;;;;10.85;100.00;96156.78;5115614;28;20500;-56
2022/12/18 06:10:59;;;;;;;1.13;0.40;;;;;;;10.83;100.00;96174.75;5115748;28;20894;-57
2022/12/18 06:13:27;;;;;;;0.83;0.60;;;;;;;10.72;100.00;96178.38;5115773;28;20950;-56
2022/12/18 06:15:55;;;;;;;0.80;0.80;;;;;;;9.90;100.00;96146.59;5115305;28;20519;-56
2022/12/18 06:18:23;;;;;;;1.73;1.17;;;;;;;10.17;100.00;96192.53;5115597;28;20463;-56
2022/12/18 06:20:56;;;;;;;1.73;1.63;;;;;;;10.52;100.00;96191.41;5115525;28;20424;-56
2022/12/18 06:23:25;;;;;;;1.97;1.87;;;;;;;10.50;100.00;96186.31;5115204;28;20420;-56
2022/12/18 06:25:55;;;;;;;1.37;1.37;;;;;;;10.52;100.00;96194.06;5114651;28;20477;-56
2022/12/18 06:28:23;;;;;;;1.10;1.00;;;;;;;10.43;100.00;96185.72;5115244;28;20435;-56
2022/12/18 06:30:52;;;;;;;1.13;1.13;;;;;;;10.78;100.00;96196.72;5115117;28;20459;-56
2022/12/18 06:33:21;;;;;;;1.03;1.03;;;;;;;11.05;100.00;96203.91;5114950;28;20497;-56
2022/12/18 06:35:49;;;;;;;1.10;1.10;;;;;;;11.25;100.00;96204.91;5115023;28;20424;-56
2022/12/18 06:38:17;;;;;;;2.50;2.30;;;;;;;10.96;100.00;96155.81;5114943;28;20428;-56
2022/12/18 06:40:45;;;;;;;4.87;1.27;;;;;;;11.19;100.00;96210.41;5114871;28;20548;-56
2022/12/18 06:43:15;;;;;;;4.60;2.43;;;;;;;10.98;100.00;96212.06;5114717;28;20519;-55
2022/12/18 06:45:44;;;;;;;4.40;4.13;;;;;;;10.61;100.00;96171.34;5114905;28;20464;-56
2022/12/18 06:48:12;;;;;;;4.90;2.70;;;;;;;11.04;100.00;96227.00;5114308;28;20485;-56
2022/12/18 06:50:43;;;;;;;1.50;1.40;;;;;;;11.27;100.00;96229.34;5114642;28;20431;-56
2022/12/18 06:53:11;;;;;;;1.40;1.30;;;;;;;11.51;100.00;96224.50;5114794;28;20464;-56
2022/12/18 06:55:39;;;;;;;2.43;2.23;;;;;;;11.68;100.00;96219.09;5114371;28;20955;-57
2022/12/18 06:58:08;;;;;;;1.60;1.47;;;;;;;11.77;100.00;96233.50;5114717;28;20520;-56
2022/12/18 07:00:39;;;;;;;11.17;2.43;;;;;;;11.53;100.00;96189.75;5114403;28;20440;-57
2022/12/18 07:03:08;;;;;;;1.73;1.37;;;;;;;11.94;100.00;96237.63;5114199;28;20913;-57
2022/12/18 07:05:40;;;;;;;20.43;1.10;;;;;;;12.09;100.00;96245.72;5114549;28;20480;-56
2022/12/18 07:08:09;;;;;;;1.33;0.60;;;;;;;12.06;100.00;96242.78;5114556;28;20438;-57
2022/12/18 07:10:42;;;;;;;1.80;1.70;;;;;;;12.09;100.00;96236.97;5113366;28;20865;-56
2022/12/18 07:13:16;;;;;;;0.67;0.67;;;;;;;12.25;100.00;96243.16;5114363;28;20430;-56
2022/12/18 07:15:45;;;;;;;0.50;0.40;;;;;;;12.36;100.00;96242.97;5114155;28;20527;-57
2022/12/18 07:18:14;;;;;;;4.00;1.40;;;;;;;12.36;100.00;96232.34;5113940;28;20991;-57
2022/12/18 07:20:42;;;;;;;2.23;2.03;;;;;;;12.33;100.00;96234.69;5113825;28;20423;-57
2022/12/18 07:23:10;;;;;;;4.13;1.63;;;;;;;12.44;100.00;96231.03;5114640;28;20882;-57
2022/12/18 07:25:39;;;;;;;3.30;2.37;;;;;;;12.27;100.00;96188.66;5114003;28;20480;-57
2022/12/18 07:28:07;;;;;;;1.53;1.43;;;;;;;12.53;100.00;96221.50;5114208;28;20425;-57
2022/12/18 07:30:45;;;;;;;1.67;1.57;;;;;;;12.80;100.00;96240.75;5113728;28;20433;-57
2022/12/18 07:33:14;;;;;;;1.30;1.17;;;;;;;12.77;100.00;96239.41;5113747;28;20426;-57
2022/12/18 07:35:42;;;;;;;1.33;0.63;;;;;;;12.92;100.00;96238.69;5113832;28;20918;-57
2022/12/18 07:38:11;;;;;;;2.30;1.23;;;;;;;13.08;100.00;96245.69;5113231;28;20465;-58
2022/12/18 07:40:39;;;;;;;3.43;2.30;;;;;;;13.18;100.00;96234.28;5113728;28;20436;-58
2022/12/18 07:43:07;;;;;;;8.20;4.23;;;;;;;13.38;100.00;96246.84;5113692;28;20423;-58
2022/12/18 07:45:36;;;;;;;1.27;1.27;;;;;;;13.71;100.00;96251.69;5111894;28;20567;-60
2022/12/18 07:48:06;;;;;;;3.70;3.60;;;;;;;13.98;100.00;96239.69;5112348;28;20427;-59
2022/12/18 07:50:34;;;;;;;8.30;4.67;;;;;;;14.06;100.00;96245.53;5112451;28;20477;-59
2022/12/18 07:53:04;;;;;;;3.87;3.13;;;;;;;14.15;100.00;96242.06;5112599;28;20430;-60
2022/12/18 07:55:33;;;;;;;3.73;3.23;;;;;;;14.37;100.00;96241.78;5111852;28;20513;-58
2022/12/18 07:58:21;;;;;;;3.90;3.43;;;;;;;14.45;100.00;96238.56;5112311;28;20428;-59
2022/12/18 08:00:49;;;;;;;3.90;2.93;;;;;;;14.49;100.00;96243.09;5113788;28;20438;-59
2022/12/18 08:03:19;;;;;;;3.20;2.93;;;;;;;14.50;100.00;96250.00;5113786;28;20826;-59
2022/12/18 08:05:49;;;;;;;4.37;3.70;;;;;;;14.62;100.00;96250.50;5113395;28;20987;-58
2022/12/18 08:08:17;;;;;;;7.43;3.27;;;;;;;14.87;100.00;96251.50;5113032;28;20507;-58
2022/12/18 08:10:47;;;;;;;3.77;3.57;;;;;;;14.57;100.00;96183.81;5113166;28;20448;-58
2022/12/18 08:13:15;;;;;;;1.63;1.53;;;;;;;15.03;100.00;96239.66;5113002;28;20447;-58
2022/12/18 08:15:43;;;;;;;2.77;1.87;;;;;;;15.07;100.00;96238.88;5113157;28;20420;-59
2022/12/18 08:18:11;;;;;;;0.80;0.80;;;;;;;14.97;100.00;96230.09;5113141;28;20857;-58
2022/12/18 08:20:42;;;;;;;1.10;1.00;;;;;;;15.28;100.00;96237.66;5112843;28;20923;-58
2022/12/18 08:23:11;;;;;;;3.93;1.73;;;;;;;15.82;100.00;96234.13;5113396;28;20855;-59
2022/12/18 08:25:39;;;;;;;3.30;1.53;;;;;;;16.09;100.00;96239.78;5112955;28;20507;-58
2022/12/18 08:28:07;;;;;;;1.90;1.77;;;;;;;16.21;100.00;96236.75;5113285;28;20431;-58
2022/12/18 08:30:36;;;;;;;1.23;1.23;;;;;;;16.06;100.00;96239.56;5113075;28;20456;-58
2022/12/18 08:33:07;;;;;;;2.60;2.40;;;;;;;16.17;98.79;96239.16;5112678;28;20416;-58
2022/12/18 08:35:37;;;;;;;1.37;1.33;;;;;;;16.30;100.00;96245.75;5112528;28;20463;-58
2022/12/18 08:38:14;;;;;;;1.57;1.47;;;;;;;15.77;100.00;96250.22;5112606;28;20903;-59
2022/12/18 08:40:42;;;;;;;1.53;1.43;;;;;;;16.55;98.80;96208.03;5112917;28;20511;-59
2022/12/18 08:45:57;;;;;;;1.27;1.27;;;;;;;17.08;91.69;96236.31;5112947;28;21014;-60
2022/12/18 08:48:25;;;;;;;1.07;0.90;;;;;;;16.41;90.60;96229.31;5112264;28;20479;-60
2022/12/18 08:50:56;;;;;;;1.33;1.13;;;;;;;16.69;94.49;96242.97;5112317;28;20518;-59
2022/12/18 08:53:27;;;;;;;0.80;0.80;;;;;;;15.90;93.96;96238.88;5112061;28;20416;-59
2022/12/18 08:56:02;;;;;;;2.40;1.67;;;;;;;15.72;100.00;96247.56;5111499;28;20424;-59
2022/12/18 08:58:31;;;;;;;1.00;0.67;;;;;;;16.38;100.00;96253.16;5111553;28;20424;-59
2022/12/18 09:01:01;;;;;;;1.23;1.23;;;;;;;16.15;95.67;96198.53;5111592;28;20431;-59
2022/12/18 09:03:30;;;;;;;1.77;0.50;;;;;;;16.06;96.86;96247.59;5112133;28;20453;-59
2022/12/18 09:05:59;;;;;;;0.90;0.50;;;;;;;15.46;100.00;96249.63;5111221;28;20463;-59
2022/12/18 09:08:29;;;;;;;1.63;1.07;;;;;;;15.54;100.00;96250.91;5112285;28;20432;-59
2022/12/18 09:10:57;;;;;;;6.10;1.47;;;;;;;15.78;99.83;96241.94;5112621;28;20862;-59
2022/12/18 09:13:26;;;;;;;2.50;0.87;;;;;;;15.51;100.00;96222.09;5112190;28;20427;-59
2022/12/18 09:15:55;;;;;;;2.40;0.67;;;;;;;15.74;100.00;96230.19;5112050;28;20422;-59
2022/12/18 09:18:25;;;;;;;0.63;0.60;;;;;;;16.47;100.00;96238.88;5111490;28;20527;-59
2022/12/18 09:20:53;;;;;;;0.60;0.40;;;;;;;16.97;93.35;96242.09;5112148;28;20434;-60
2022/12/18 09:23:22;;;;;;;0.90;0.90;;;;;;;16.95;94.64;96238.91;5112021;28;20416;-59
2022/12/18 09:25:52;;;;;;;0.50;0.40;;;;;;;16.92;94.42;96239.50;5111885;28;21059;-60
2022/12/18 09:28:20;;;;;;;0.93;0.93;;;;;;;16.89;92.52;96250.75;5112047;28;20430;-60
2022/12/18 09:30:50;;;;;;;0.77;0.77;;;;;;;16.51;92.08;96239.91;5112500;28;20499;-60
2022/12/18 09:33:18;;;;;;;1.83;1.63;;;;;;;16.17;95.09;96233.81;5111959;28;20428;-59
2022/12/18 09:35:47;;;;;;;0.90;0.90;;;;;;;16.10;93.07;96228.00;5112310;28;20424;-58
2022/12/18 09:38:17;;;;;;;1.43;1.03;;;;;;;15.84;95.69;96248.81;5111470;28;20412;-57
2022/12/18 09:40:49;;;;;;;0.97;0.87;;;;;;;15.90;96.29;96246.91;5111514;28;20541;-57
2022/12/18 09:43:22;;;;;;;0.83;0.83;;;;;;;16.67;98.00;96247.81;5111706;28;20427;-58
2022/12/18 09:45:54;;;;;;;0.60;0.60;;;;;;;16.27;94.40;96248.97;5111990;28;20428;-58
2022/12/18 09:48:27;;;;;;;1.00;1.00;;;;;;;15.49;97.23;96237.56;5111495;28;21020;-59
2022/12/18 09:50:58;;;;;;;0.50;0.43;;;;;;;15.54;99.51;96243.69;5111398;28;20431;-58
2022/12/18 09:53:31;;;;;;;1.40;1.30;;;;;;;15.65;98.55;96245.22;5112189;28;20784;-57
2022/12/18 09:56:02;;;;;;;0.80;0.80;;;;;;;15.76;96.40;96246.72;5111536;28;20901;-58
2022/12/18 09:58:37;;;;;;;4.57;0.57;;;;;;;15.97;95.78;96244.69;5112094;28;20434;-58
2022/12/18 10:01:11;;;;;;;2.00;0.80;;;;;;;16.23;94.72;96237.25;5111776;28;20418;-59
2022/12/18 10:03:39;;;;;;;1.70;1.40;;;;;;;15.84;96.55;96248.00;5111438;28;20431;-58
2022/12/18 10:06:14;;;;;;;1.13;1.13;;;;;;;15.82;96.63;96234.94;5112046;28;20424;-58
2022/12/18 10:08:50;;;;;;;0.63;0.63;;;;;;;16.08;93.22;96238.19;5111713;28;21078;-58
2022/12/18 10:11:33;;;;;;;0.40;0.30;;;;;;;16.04;93.72;96236.38;5112045;28;20510;-58
2022/12/18 10:14:10;;;;;;;0.90;0.90;;;;;;;15.67;95.38;96235.06;5111723;28;20442;-58
2022/12/18 10:16:46;;;;;;;1.30;1.27;;;;;;;15.58;97.39;96234.06;5112121;28;20408;-58
2022/12/18 10:19:27;;;;;;;0.43;0.30;;;;;;;15.68;94.78;96235.84;5115649;28;20495;-58
2022/12/18 10:22:05;;;;;;;1.00;0.87;;;;;;;15.73;96.88;96225.13;5115338;28;20432;-58
2022/12/18 10:24:41;;;;;;;0.87;0.87;;;;;;;15.26;97.08;96225.66;5115217;28;20442;-59
2022/12/18 10:27:15;;;;;;;1.13;1.03;;;;;;;15.30;99.93;96224.06;5115379;28;20462;-59
2022/12/18 10:29:46;;;;;;;0.60;0.50;;;;;;;15.63;100.00;96228.69;5115440;28;20499;-59
2022/12/18 10:32:18;;;;;;;3.27;1.57;;;;;;;15.86;97.87;96224.50;5115612;28;20420;-59
2022/12/18 10:34:47;;;;;;;0.60;0.50;;;;;;;15.50;95.90;96217.81;5115279;28;20412;-58
2022/12/18 10:37:19;;;;;;;0.40;0.40;;;;;;;15.94;97.99;96217.75;5115051;28;20416;-59
2022/12/18 10:39:52;;;;;;;0.40;0.40;;;;;;;15.74;94.27;96216.81;5114853;28;20944;-59
2022/12/18 10:42:20;;;;;;;0.73;0.70;;;;;;;15.68;94.91;96223.28;5114822;28;20420;-59
2022/12/18 10:45:02;;;;;;;0.93;0.93;;;;;;;15.74;98.47;96213.34;5114728;28;20427;-59
2022/12/18 10:47:30;;;;;;;0.60;0.60;;;;;;;15.72;97.75;96216.31;5115012;28;20482;-58
2022/12/18 10:49:59;;;;;;;0.73;0.73;;;;;;;15.81;96.76;96224.53;5114296;28;20559;-58
2022/12/18 10:52:28;;;;;;;0.63;0.63;;;;;;;15.08;96.61;96119.50;5114657;28;20939;-58
2022/12/18 10:55:01;;;;;;;1.30;1.20;;;;;;;15.67;97.45;96221.69;5114538;28;20426;-57
2022/12/18 10:57:35;;;;;;;0.43;0.30;;;;;;;15.83;94.33;96220.50;5114224;28;20468;-57
2022/12/18 11:00:24;;;;;;;1.30;1.10;;;;;;;15.34;97.12;96219.75;5114181;28;20415;-57
2022/12/18 11:02:53;;;;;;;8.60;2.13;;;;;;;15.45;96.41;96209.78;5114214;28;20424;-57
2022/12/18 11:05:28;;;;;;;2.60;1.43;;;;;;;15.50;99.35;96215.13;5114243;28;20416;-57
2022/12/18 11:07:58;;;;;;;1.13;1.03;;;;;;;15.74;96.77;96205.31;5114128;28;20466;-57
2022/12/18 11:10:31;;;;;;;1.73;1.63;;;;;;;15.46;99.34;96214.88;5114065;28;20524;-57
2022/12/18 11:13:14;;;;;;;1.80;1.23;;;;;;;15.44;100.00;96217.00;5114083;28;20839;-57
2022/12/18 11:15:43;;;;;;;1.00;1.00;;;;;;;15.32;100.00;96205.88;5114339;28;20906;-57
2022/12/18 11:18:20;;;;;;;3.13;1.13;;;;;;;14.87;98.93;96140.19;5113824;28;20579;-57
2022/12/18 11:20:53;;;;;;;0.80;0.80;;;;;;;15.09;99.57;96143.25;5114550;28;20802;-58
2022/12/18 11:23:26;;;;;;;0.50;0.37;;;;;;;15.72;97.33;96200.25;5114267;28;20423;-58
2022/12/18 11:25:58;;;;;;;0.80;0.80;;;;;;;15.75;97.20;96209.59;5114344;28;20424;-58
2022/12/18 11:28:36;;;;;;;2.53;1.60;;;;;;;16.18;94.05;96197.97;5113395;28;20484;-57
2022/12/18 11:31:22;;;;;;;0.47;0.43;;;;;;;15.97;95.23;96193.09;5114198;28;20519;-58
2022/12/18 11:34:05;;;;;;;0.60;0.50;;;;;;;16.00;94.52;96196.00;5114512;28;20412;-58
2022/12/18 11:36:54;;;;;;;1.13;1.13;;;;;;;15.92;95.15;96199.28;5114026;28;20492;-57
2022/12/18 11:39:32;;;;;;;0.40;0.40;;;;;;;15.86;92.65;96126.34;5114224;28;20965;-58
2022/12/18 11:42:12;;;;;;;0.50;0.43;;;;;;;16.24;93.41;96196.06;5114354;28;20427;-58
2022/12/18 11:44:47;;;;;;;1.20;1.10;;;;;;;16.29;91.82;96196.78;5113978;28;20420;-58
2022/12/18 11:47:29;;;;;;;1.90;1.80;;;;;;;15.50;94.02;96126.97;5113968;28;20494;-57
2022/12/18 11:50:01;;;;;;;0.77;0.77;;;;;;;16.10;93.18;96195.13;5113331;28;21006;-58